sensor_id;sensor_type;location;lat;lon;timestamp;P1;durP1;ratioP1;P2;durP2;ratioP2
22250;SDS011;59348;52.158;5.588;2023-04-06T00:00:39;19.05;;;10.13;;
22250;SDS011;59348;52.158;5.588;2023-04-06T00:03:06;21.45;;;9.85;;
22250;SDS011;59348;52.158;5.588;2023-04-06T00:05:33;20.00;;;10.15;;
22250;SDS011;59348;52.158;5.588;2023-04-06T00:08:00;16.35;;;10.02;;
22250;SDS011;59348;52.158;5.588;2023-04-06T00:10:28;16.77;;;9.85;;
22250;SDS011;59348;52.158;5.588;2023-04-06T00:12:57;15.40;;;8.73;;
22250;SDS011;59348;52.158;5.588;2023-04-06T00:15:25;14.90;;;8.73;;
22250;SDS011;59348;52.158;5.588;2023-04-06T00:17:52;13.85;;;8.25;;
22250;SDS011;59348;52.158;5.588;2023-04-06T00:20:19;15.65;;;8.95;;
22250;SDS011;59348;52.158;5.588;2023-04-06T00:22:47;13.60;;;8.52;;
22250;SDS011;59348;52.158;5.588;2023-04-06T00:25:14;15.63;;;8.77;;
22250;SDS011;59348;52.158;5.588;2023-04-06T00:27:41;17.15;;;9.18;;
22250;SDS011;59348;52.158;5.588;2023-04-06T00:30:10;13.73;;;8.93;;
22250;SDS011;59348;52.158;5.588;2023-04-06T00:32:37;13.85;;;8.70;;
22250;SDS011;59348;52.158;5.588;2023-04-06T00:35:05;14.32;;;8.70;;
22250;SDS011;59348;52.158;5.588;2023-04-06T00:37:32;16.80;;;9.15;;
22250;SDS011;59348;52.158;5.588;2023-04-06T00:40:00;14.77;;;8.23;;
22250;SDS011;59348;52.158;5.588;2023-04-06T00:42:27;13.05;;;7.70;;
22250;SDS011;59348;52.158;5.588;2023-04-06T00:44:55;14.95;;;8.13;;
22250;SDS011;59348;52.158;5.588;2023-04-06T00:47:24;14.48;;;8.35;;
22250;SDS011;59348;52.158;5.588;2023-04-06T00:49:52;14.05;;;8.27;;
22250;SDS011;59348;52.158;5.588;2023-04-06T00:52:19;13.13;;;7.85;;
22250;SDS011;59348;52.158;5.588;2023-04-06T00:54:50;13.30;;;7.82;;
22250;SDS011;59348;52.158;5.588;2023-04-06T00:57:17;15.50;;;8.35;;
22250;SDS011;59348;52.158;5.588;2023-04-06T00:59:45;11.88;;;7.72;;
22250;SDS011;59348;52.158;5.588;2023-04-06T01:02:12;12.25;;;7.90;;
22250;SDS011;59348;52.158;5.588;2023-04-06T01:04:41;14.25;;;8.05;;
22250;SDS011;59348;52.158;5.588;2023-04-06T01:07:08;12.93;;;7.70;;
22250;SDS011;59348;52.158;5.588;2023-04-06T01:09:36;14.45;;;7.63;;
22250;SDS011;59348;52.158;5.588;2023-04-06T01:12:06;13.57;;;8.00;;
22250;SDS011;59348;52.158;5.588;2023-04-06T01:14:33;14.15;;;8.40;;
22250;SDS011;59348;52.158;5.588;2023-04-06T01:17:00;14.07;;;7.75;;
22250;SDS011;59348;52.158;5.588;2023-04-06T01:19:28;11.93;;;7.53;;
22250;SDS011;59348;52.158;5.588;2023-04-06T01:21:56;11.73;;;7.70;;
22250;SDS011;59348;52.158;5.588;2023-04-06T01:24:25;17.80;;;8.15;;
22250;SDS011;59348;52.158;5.588;2023-04-06T01:26:52;12.73;;;7.25;;
22250;SDS011;59348;52.158;5.588;2023-04-06T01:29:19;18.63;;;7.82;;
22250;SDS011;59348;52.158;5.588;2023-04-06T01:31:47;14.82;;;8.63;;
22250;SDS011;59348;52.158;5.588;2023-04-06T01:34:14;14.63;;;8.30;;
22250;SDS011;59348;52.158;5.588;2023-04-06T01:36:41;11.93;;;7.60;;
22250;SDS011;59348;52.158;5.588;2023-04-06T01:39:09;15.48;;;7.63;;
22250;SDS011;59348;52.158;5.588;2023-04-06T01:41:37;13.70;;;7.97;;
22250;SDS011;59348;52.158;5.588;2023-04-06T01:44:04;11.98;;;7.30;;
22250;SDS011;59348;52.158;5.588;2023-04-06T01:46:32;11.18;;;7.53;;
22250;SDS011;59348;52.158;5.588;2023-04-06T01:48:59;12.60;;;7.50;;
22250;SDS011;59348;52.158;5.588;2023-04-06T01:51:26;12.20;;;7.72;;
22250;SDS011;59348;52.158;5.588;2023-04-06T01:53:54;15.50;;;7.78;;
22250;SDS011;59348;52.158;5.588;2023-04-06T01:56:21;14.35;;;7.85;;
22250;SDS011;59348;52.158;5.588;2023-04-06T01:58:49;14.05;;;7.65;;
22250;SDS011;59348;52.158;5.588;2023-04-06T02:01:17;12.23;;;7.00;;
22250;SDS011;59348;52.158;5.588;2023-04-06T02:03:44;12.93;;;7.68;;
22250;SDS011;59348;52.158;5.588;2023-04-06T02:06:11;14.05;;;7.55;;
22250;SDS011;59348;52.158;5.588;2023-04-06T02:08:39;14.88;;;7.90;;
22250;SDS011;59348;52.158;5.588;2023-04-06T02:11:06;12.50;;;8.07;;
22250;SDS011;59348;52.158;5.588;2023-04-06T02:13:33;13.23;;;7.90;;
22250;SDS011;59348;52.158;5.588;2023-04-06T02:16:02;14.50;;;7.82;;
22250;SDS011;59348;52.158;5.588;2023-04-06T02:18:30;13.13;;;7.72;;
22250;SDS011;59348;52.158;5.588;2023-04-06T02:20:57;13.07;;;8.60;;
22250;SDS011;59348;52.158;5.588;2023-04-06T02:23:24;13.85;;;8.82;;
22250;SDS011;59348;52.158;5.588;2023-04-06T02:25:51;14.25;;;8.65;;
22250;SDS011;59348;52.158;5.588;2023-04-06T02:28:19;13.57;;;7.55;;
22250;SDS011;59348;52.158;5.588;2023-04-06T02:30:46;12.48;;;8.40;;
22250;SDS011;59348;52.158;5.588;2023-04-06T02:33:15;14.15;;;8.68;;
22250;SDS011;59348;52.158;5.588;2023-04-06T02:35:43;17.98;;;9.05;;
22250;SDS011;59348;52.158;5.588;2023-04-06T02:38:11;16.77;;;9.50;;
22250;SDS011;59348;52.158;5.588;2023-04-06T02:40:38;15.88;;;9.00;;
22250;SDS011;59348;52.158;5.588;2023-04-06T02:43:05;13.82;;;8.55;;
22250;SDS011;59348;52.158;5.588;2023-04-06T02:45:33;18.30;;;8.30;;
22250;SDS011;59348;52.158;5.588;2023-04-06T02:48:00;12.90;;;7.85;;
22250;SDS011;59348;52.158;5.588;2023-04-06T02:50:28;15.88;;;8.68;;
22250;SDS011;59348;52.158;5.588;2023-04-06T02:52:56;12.88;;;8.35;;
22250;SDS011;59348;52.158;5.588;2023-04-06T02:55:23;15.00;;;8.88;;
22250;SDS011;59348;52.158;5.588;2023-04-06T02:57:50;14.23;;;8.63;;
22250;SDS011;59348;52.158;5.588;2023-04-06T03:00:18;12.45;;;7.80;;
22250;SDS011;59348;52.158;5.588;2023-04-06T03:02:45;13.60;;;8.55;;
22250;SDS011;59348;52.158;5.588;2023-04-06T03:05:13;13.55;;;8.65;;
22250;SDS011;59348;52.158;5.588;2023-04-06T03:07:42;14.65;;;8.10;;
22250;SDS011;59348;52.158;5.588;2023-04-06T03:10:09;12.55;;;8.20;;
22250;SDS011;59348;52.158;5.588;2023-04-06T03:12:37;13.00;;;8.45;;
22250;SDS011;59348;52.158;5.588;2023-04-06T03:15:04;14.27;;;8.73;;
22250;SDS011;59348;52.158;5.588;2023-04-06T03:17:32;12.63;;;7.85;;
22250;SDS011;59348;52.158;5.588;2023-04-06T03:19:59;16.90;;;9.02;;
22250;SDS011;59348;52.158;5.588;2023-04-06T03:22:26;14.73;;;8.25;;
22250;SDS011;59348;52.158;5.588;2023-04-06T03:24:55;12.82;;;8.55;;
22250;SDS011;59348;52.158;5.588;2023-04-06T03:27:22;13.50;;;8.27;;
22250;SDS011;59348;52.158;5.588;2023-04-06T03:29:49;14.93;;;8.70;;
22250;SDS011;59348;52.158;5.588;2023-04-06T03:32:17;14.57;;;8.52;;
22250;SDS011;59348;52.158;5.588;2023-04-06T03:34:44;15.48;;;8.85;;
22250;SDS011;59348;52.158;5.588;2023-04-06T03:37:11;15.88;;;9.18;;
22250;SDS011;59348;52.158;5.588;2023-04-06T03:39:38;12.82;;;8.48;;
22250;SDS011;59348;52.158;5.588;2023-04-06T03:42:07;13.77;;;8.85;;
22250;SDS011;59348;52.158;5.588;2023-04-06T03:44:34;16.38;;;9.45;;
22250;SDS011;59348;52.158;5.588;2023-04-06T03:47:02;14.52;;;8.75;;
22250;SDS011;59348;52.158;5.588;2023-04-06T03:49:29;13.40;;;8.05;;
22250;SDS011;59348;52.158;5.588;2023-04-06T03:51:56;12.75;;;8.82;;
22250;SDS011;59348;52.158;5.588;2023-04-06T03:54:23;13.88;;;9.18;;
22250;SDS011;59348;52.158;5.588;2023-04-06T03:56:51;12.30;;;8.55;;
22250;SDS011;59348;52.158;5.588;2023-04-06T03:59:19;14.73;;;8.73;;
22250;SDS011;59348;52.158;5.588;2023-04-06T04:01:47;13.00;;;8.38;;
22250;SDS011;59348;52.158;5.588;2023-04-06T04:04:14;14.50;;;9.07;;
22250;SDS011;59348;52.158;5.588;2023-04-06T04:06:41;12.10;;;8.63;;
22250;SDS011;59348;52.158;5.588;2023-04-06T04:09:09;15.82;;;8.68;;
22250;SDS011;59348;52.158;5.588;2023-04-06T04:11:36;13.35;;;8.60;;
22250;SDS011;59348;52.158;5.588;2023-04-06T04:14:03;12.23;;;8.25;;
22250;SDS011;59348;52.158;5.588;2023-04-06T04:16:32;12.20;;;8.27;;
22250;SDS011;59348;52.158;5.588;2023-04-06T04:18:59;14.25;;;8.40;;
22250;SDS011;59348;52.158;5.588;2023-04-06T04:21:28;13.30;;;8.02;;
22250;SDS011;59348;52.158;5.588;2023-04-06T04:23:56;13.52;;;8.50;;
22250;SDS011;59348;52.158;5.588;2023-04-06T04:26:24;17.23;;;9.02;;
22250;SDS011;59348;52.158;5.588;2023-04-06T04:28:51;15.05;;;8.85;;
22250;SDS011;59348;52.158;5.588;2023-04-06T04:31:18;13.80;;;8.50;;
22250;SDS011;59348;52.158;5.588;2023-04-06T04:33:48;13.05;;;8.30;;
22250;SDS011;59348;52.158;5.588;2023-04-06T04:36:16;13.05;;;8.60;;
22250;SDS011;59348;52.158;5.588;2023-04-06T04:38:43;15.13;;;8.70;;
22250;SDS011;59348;52.158;5.588;2023-04-06T04:41:10;13.10;;;8.57;;
22250;SDS011;59348;52.158;5.588;2023-04-06T04:43:38;13.63;;;8.80;;
22250;SDS011;59348;52.158;5.588;2023-04-06T04:46:05;13.13;;;8.48;;
22250;SDS011;59348;52.158;5.588;2023-04-06T04:48:32;14.77;;;9.15;;
22250;SDS011;59348;52.158;5.588;2023-04-06T04:51:01;14.18;;;9.23;;
22250;SDS011;59348;52.158;5.588;2023-04-06T04:53:28;14.25;;;9.30;;
22250;SDS011;59348;52.158;5.588;2023-04-06T04:55:55;15.70;;;8.85;;
22250;SDS011;59348;52.158;5.588;2023-04-06T04:58:23;13.45;;;8.90;;
22250;SDS011;59348;52.158;5.588;2023-04-06T05:00:50;14.27;;;8.40;;
22250;SDS011;59348;52.158;5.588;2023-04-06T05:03:18;18.98;;;9.40;;
22250;SDS011;59348;52.158;5.588;2023-04-06T05:05:46;16.40;;;9.30;;
22250;SDS011;59348;52.158;5.588;2023-04-06T05:08:15;18.17;;;8.85;;
22250;SDS011;59348;52.158;5.588;2023-04-06T05:10:42;15.18;;;8.70;;
22250;SDS011;59348;52.158;5.588;2023-04-06T05:13:11;13.80;;;9.15;;
22250;SDS011;59348;52.158;5.588;2023-04-06T05:15:38;15.13;;;9.13;;
22250;SDS011;59348;52.158;5.588;2023-04-06T05:18:06;17.50;;;9.20;;
22250;SDS011;59348;52.158;5.588;2023-04-06T05:20:33;17.55;;;9.50;;
22250;SDS011;59348;52.158;5.588;2023-04-06T05:23:01;13.85;;;8.88;;
22250;SDS011;59348;52.158;5.588;2023-04-06T05:25:30;13.70;;;8.77;;
22250;SDS011;59348;52.158;5.588;2023-04-06T05:27:57;15.38;;;8.90;;
22250;SDS011;59348;52.158;5.588;2023-04-06T05:30:26;15.35;;;9.40;;
22250;SDS011;59348;52.158;5.588;2023-04-06T05:32:53;16.65;;;9.65;;
22250;SDS011;59348;52.158;5.588;2023-04-06T05:35:21;18.38;;;9.32;;
22250;SDS011;59348;52.158;5.588;2023-04-06T05:37:48;18.23;;;9.32;;
22250;SDS011;59348;52.158;5.588;2023-04-06T05:40:15;19.45;;;9.60;;
22250;SDS011;59348;52.158;5.588;2023-04-06T05:42:44;15.38;;;9.52;;
22250;SDS011;59348;52.158;5.588;2023-04-06T05:45:12;16.80;;;9.55;;
22250;SDS011;59348;52.158;5.588;2023-04-06T05:47:41;16.33;;;9.13;;
22250;SDS011;59348;52.158;5.588;2023-04-06T05:50:09;16.27;;;9.80;;
22250;SDS011;59348;52.158;5.588;2023-04-06T05:52:37;16.52;;;9.60;;
22250;SDS011;59348;52.158;5.588;2023-04-06T05:55:06;16.48;;;9.70;;
22250;SDS011;59348;52.158;5.588;2023-04-06T05:57:34;15.00;;;9.95;;
22250;SDS011;59348;52.158;5.588;2023-04-06T06:00:02;17.50;;;9.70;;
22250;SDS011;59348;52.158;5.588;2023-04-06T06:02:31;18.48;;;10.43;;
22250;SDS011;59348;52.158;5.588;2023-04-06T06:04:59;15.98;;;9.70;;
22250;SDS011;59348;52.158;5.588;2023-04-06T06:07:26;18.63;;;10.25;;
22250;SDS011;59348;52.158;5.588;2023-04-06T06:09:56;19.55;;;10.10;;
22250;SDS011;59348;52.158;5.588;2023-04-06T06:12:23;19.73;;;10.25;;
22250;SDS011;59348;52.158;5.588;2023-04-06T06:14:51;18.17;;;10.52;;
22250;SDS011;59348;52.158;5.588;2023-04-06T06:17:19;19.90;;;10.93;;
22250;SDS011;59348;52.158;5.588;2023-04-06T06:19:47;17.33;;;10.20;;
22250;SDS011;59348;52.158;5.588;2023-04-06T06:22:14;18.95;;;10.38;;
22250;SDS011;59348;52.158;5.588;2023-04-06T06:24:41;16.33;;;10.65;;
22250;SDS011;59348;52.158;5.588;2023-04-06T06:27:08;19.05;;;10.95;;
22250;SDS011;59348;52.158;5.588;2023-04-06T06:29:36;18.67;;;10.95;;
22250;SDS011;59348;52.158;5.588;2023-04-06T06:32:03;17.02;;;11.60;;
22250;SDS011;59348;52.158;5.588;2023-04-06T06:34:32;19.00;;;11.55;;
22250;SDS011;59348;52.158;5.588;2023-04-06T06:36:59;16.48;;;11.65;;
22250;SDS011;59348;52.158;5.588;2023-04-06T06:39:27;17.83;;;12.18;;
22250;SDS011;59348;52.158;5.588;2023-04-06T06:41:55;19.25;;;11.80;;
22250;SDS011;59348;52.158;5.588;2023-04-06T06:44:22;18.83;;;11.70;;
22250;SDS011;59348;52.158;5.588;2023-04-06T06:46:50;19.02;;;12.30;;
22250;SDS011;59348;52.158;5.588;2023-04-06T06:49:17;23.02;;;11.88;;
22250;SDS011;59348;52.158;5.588;2023-04-06T06:51:46;17.08;;;11.73;;
22250;SDS011;59348;52.158;5.588;2023-04-06T06:54:13;24.50;;;11.73;;
22250;SDS011;59348;52.158;5.588;2023-04-06T06:56:40;19.40;;;11.48;;
22250;SDS011;59348;52.158;5.588;2023-04-06T06:59:08;19.00;;;12.02;;
22250;SDS011;59348;52.158;5.588;2023-04-06T07:01:35;20.67;;;12.23;;
22250;SDS011;59348;52.158;5.588;2023-04-06T07:04:03;25.45;;;12.05;;
22250;SDS011;59348;52.158;5.588;2023-04-06T07:06:30;19.63;;;12.50;;
22250;SDS011;59348;52.158;5.588;2023-04-06T07:08:58;24.58;;;13.07;;
22250;SDS011;59348;52.158;5.588;2023-04-06T07:11:26;23.25;;;13.80;;
22250;SDS011;59348;52.158;5.588;2023-04-06T07:13:53;25.05;;;13.48;;
22250;SDS011;59348;52.158;5.588;2023-04-06T07:16:20;21.40;;;14.02;;
22250;SDS011;59348;52.158;5.588;2023-04-06T07:18:47;23.63;;;13.75;;
22250;SDS011;59348;52.158;5.588;2023-04-06T07:21:15;20.13;;;13.23;;
22250;SDS011;59348;52.158;5.588;2023-04-06T07:23:42;25.90;;;14.38;;
22250;SDS011;59348;52.158;5.588;2023-04-06T07:26:11;23.45;;;14.60;;
22250;SDS011;59348;52.158;5.588;2023-04-06T07:28:38;24.50;;;14.13;;
22250;SDS011;59348;52.158;5.588;2023-04-06T07:31:06;26.73;;;14.80;;
22250;SDS011;59348;52.158;5.588;2023-04-06T07:33:33;27.23;;;14.65;;
22250;SDS011;59348;52.158;5.588;2023-04-06T07:36:00;24.42;;;14.63;;
22250;SDS011;59348;52.158;5.588;2023-04-06T07:38:28;26.45;;;14.27;;
22250;SDS011;59348;52.158;5.588;2023-04-06T07:40:55;25.88;;;13.52;;
22250;SDS011;59348;52.158;5.588;2023-04-06T07:43:24;21.98;;;13.80;;
22250;SDS011;59348;52.158;5.588;2023-04-06T07:45:51;22.88;;;14.15;;
22250;SDS011;59348;52.158;5.588;2023-04-06T07:48:18;26.45;;;14.18;;
22250;SDS011;59348;52.158;5.588;2023-04-06T07:50:46;26.52;;;14.27;;
22250;SDS011;59348;52.158;5.588;2023-04-06T07:53:13;21.77;;;13.43;;
22250;SDS011;59348;52.158;5.588;2023-04-06T07:55:40;22.02;;;13.45;;
22250;SDS011;59348;52.158;5.588;2023-04-06T07:58:07;25.98;;;14.43;;
22250;SDS011;59348;52.158;5.588;2023-04-06T08:00:36;24.42;;;14.07;;
22250;SDS011;59348;52.158;5.588;2023-04-06T08:03:03;26.80;;;14.52;;
22250;SDS011;59348;52.158;5.588;2023-04-06T08:05:31;23.60;;;13.95;;
22250;SDS011;59348;52.158;5.588;2023-04-06T08:07:58;26.75;;;14.20;;
22250;SDS011;59348;52.158;5.588;2023-04-06T08:10:25;22.88;;;13.50;;
22250;SDS011;59348;52.158;5.588;2023-04-06T08:12:52;23.75;;;13.70;;
22250;SDS011;59348;52.158;5.588;2023-04-06T08:15:20;22.65;;;14.43;;
22250;SDS011;59348;52.158;5.588;2023-04-06T08:17:48;25.05;;;14.35;;
22250;SDS011;59348;52.158;5.588;2023-04-06T08:20:16;25.48;;;14.52;;
22250;SDS011;59348;52.158;5.588;2023-04-06T08:22:43;31.00;;;15.05;;
22250;SDS011;59348;52.158;5.588;2023-04-06T08:25:10;25.73;;;15.00;;
22250;SDS011;59348;52.158;5.588;2023-04-06T08:27:37;23.95;;;15.32;;
22250;SDS011;59348;52.158;5.588;2023-04-06T08:30:05;27.23;;;14.68;;
22250;SDS011;59348;52.158;5.588;2023-04-06T08:32:32;26.17;;;14.85;;
22250;SDS011;59348;52.158;5.588;2023-04-06T08:35:01;28.00;;;15.50;;
22250;SDS011;59348;52.158;5.588;2023-04-06T08:37:28;24.88;;;15.02;;
22250;SDS011;59348;52.158;5.588;2023-04-06T08:39:57;26.42;;;16.10;;
22250;SDS011;59348;52.158;5.588;2023-04-06T08:42:25;27.13;;;15.75;;
22250;SDS011;59348;52.158;5.588;2023-04-06T08:44:52;27.60;;;15.05;;
22250;SDS011;59348;52.158;5.588;2023-04-06T08:47:20;24.80;;;16.13;;
22250;SDS011;59348;52.158;5.588;2023-04-06T08:49:48;26.85;;;16.10;;
22250;SDS011;59348;52.158;5.588;2023-04-06T08:52:17;31.85;;;16.33;;
22250;SDS011;59348;52.158;5.588;2023-04-06T08:54:45;26.08;;;16.23;;
22250;SDS011;59348;52.158;5.588;2023-04-06T08:57:12;26.70;;;15.70;;
22250;SDS011;59348;52.158;5.588;2023-04-06T08:59:40;26.55;;;16.58;;
22250;SDS011;59348;52.158;5.588;2023-04-06T09:02:08;26.88;;;16.23;;
22250;SDS011;59348;52.158;5.588;2023-04-06T09:04:39;27.13;;;16.65;;
22250;SDS011;59348;52.158;5.588;2023-04-06T09:07:06;30.10;;;17.67;;
22250;SDS011;59348;52.158;5.588;2023-04-06T09:09:35;28.67;;;16.90;;
22250;SDS011;59348;52.158;5.588;2023-04-06T09:12:08;27.95;;;16.70;;
22250;SDS011;59348;52.158;5.588;2023-04-06T09:14:37;31.00;;;16.67;;
22250;SDS011;59348;52.158;5.588;2023-04-06T09:17:06;28.15;;;17.63;;
22250;SDS011;59348;52.158;5.588;2023-04-06T09:19:33;28.38;;;17.13;;
22250;SDS011;59348;52.158;5.588;2023-04-06T09:22:01;27.98;;;17.92;;
22250;SDS011;59348;52.158;5.588;2023-04-06T09:24:38;29.65;;;18.00;;
22250;SDS011;59348;52.158;5.588;2023-04-06T09:27:07;29.17;;;16.98;;
22250;SDS011;59348;52.158;5.588;2023-04-06T09:29:34;31.70;;;17.92;;
22250;SDS011;59348;52.158;5.588;2023-04-06T09:32:03;36.08;;;18.45;;
22250;SDS011;59348;52.158;5.588;2023-04-06T09:34:33;24.80;;;17.23;;
22250;SDS011;59348;52.158;5.588;2023-04-06T09:37:00;34.78;;;17.95;;
22250;SDS011;59348;52.158;5.588;2023-04-06T09:39:38;29.33;;;18.40;;
22250;SDS011;59348;52.158;5.588;2023-04-06T09:42:08;29.98;;;18.27;;
22250;SDS011;59348;52.158;5.588;2023-04-06T09:44:35;26.48;;;18.15;;
22250;SDS011;59348;52.158;5.588;2023-04-06T09:47:03;29.15;;;18.67;;
22250;SDS011;59348;52.158;5.588;2023-04-06T09:49:33;30.08;;;20.00;;
22250;SDS011;59348;52.158;5.588;2023-04-06T09:52:01;28.27;;;18.73;;
22250;SDS011;59348;52.158;5.588;2023-04-06T09:54:29;31.55;;;19.40;;
22250;SDS011;59348;52.158;5.588;2023-04-06T09:56:58;33.25;;;19.75;;
22250;SDS011;59348;52.158;5.588;2023-04-06T09:59:31;29.83;;;19.20;;
22250;SDS011;59348;52.158;5.588;2023-04-06T10:02:00;32.72;;;19.38;;
22250;SDS011;59348;52.158;5.588;2023-04-06T10:04:31;29.80;;;19.27;;
22250;SDS011;59348;52.158;5.588;2023-04-06T10:07:02;28.77;;;19.20;;
22250;SDS011;59348;52.158;5.588;2023-04-06T10:09:30;30.15;;;19.08;;
22250;SDS011;59348;52.158;5.588;2023-04-06T10:12:02;30.45;;;18.65;;
22250;SDS011;59348;52.158;5.588;2023-04-06T10:14:31;33.80;;;19.35;;
22250;SDS011;59348;52.158;5.588;2023-04-06T10:17:02;32.92;;;19.20;;
22250;SDS011;59348;52.158;5.588;2023-04-06T10:19:31;32.88;;;19.73;;
22250;SDS011;59348;52.158;5.588;2023-04-06T10:22:01;28.65;;;19.67;;
22250;SDS011;59348;52.158;5.588;2023-04-06T10:24:29;26.88;;;19.33;;
22250;SDS011;59348;52.158;5.588;2023-04-06T10:26:57;31.50;;;20.17;;
22250;SDS011;59348;52.158;5.588;2023-04-06T10:29:25;31.40;;;20.98;;
22250;SDS011;59348;52.158;5.588;2023-04-06T10:31:54;29.65;;;19.02;;
22250;SDS011;59348;52.158;5.588;2023-04-06T10:34:21;32.05;;;20.58;;
22250;SDS011;59348;52.158;5.588;2023-04-06T10:36:48;32.22;;;20.70;;
22250;SDS011;59348;52.158;5.588;2023-04-06T10:39:16;33.08;;;19.98;;
22250;SDS011;59348;52.158;5.588;2023-04-06T10:41:52;27.40;;;17.27;;
22250;SDS011;59348;52.158;5.588;2023-04-06T10:44:19;30.55;;;19.58;;
22250;SDS011;59348;52.158;5.588;2023-04-06T10:46:56;26.80;;;18.02;;
22250;SDS011;59348;52.158;5.588;2023-04-06T10:49:25;26.30;;;16.92;;
22250;SDS011;59348;52.158;5.588;2023-04-06T10:51:53;28.25;;;16.73;;
22250;SDS011;59348;52.158;5.588;2023-04-06T10:54:21;32.15;;;16.48;;
22250;SDS011;59348;52.158;5.588;2023-04-06T10:56:48;30.25;;;16.95;;
22250;SDS011;59348;52.158;5.588;2023-04-06T10:59:18;24.13;;;15.15;;
22250;SDS011;59348;52.158;5.588;2023-04-06T11:01:46;20.70;;;13.38;;
22250;SDS011;59348;52.158;5.588;2023-04-06T11:04:17;22.23;;;13.15;;
22250;SDS011;59348;52.158;5.588;2023-04-06T11:06:46;19.08;;;12.57;;
22250;SDS011;59348;52.158;5.588;2023-04-06T11:09:22;23.15;;;13.40;;
22250;SDS011;59348;52.158;5.588;2023-04-06T11:11:50;20.10;;;12.70;;
22250;SDS011;59348;52.158;5.588;2023-04-06T11:14:17;17.45;;;12.07;;
22250;SDS011;59348;52.158;5.588;2023-04-06T11:16:46;21.42;;;11.40;;
22250;SDS011;59348;52.158;5.588;2023-04-06T11:19:14;15.75;;;10.98;;
22250;SDS011;59348;52.158;5.588;2023-04-06T11:21:43;15.00;;;11.10;;
22250;SDS011;59348;52.158;5.588;2023-04-06T11:24:13;15.68;;;10.52;;
22250;SDS011;59348;52.158;5.588;2023-04-06T11:26:41;15.05;;;10.50;;
22250;SDS011;59348;52.158;5.588;2023-04-06T11:29:09;16.83;;;10.50;;
22250;SDS011;59348;52.158;5.588;2023-04-06T11:31:39;14.45;;;10.00;;
22250;SDS011;59348;52.158;5.588;2023-04-06T11:34:15;17.40;;;10.13;;
22250;SDS011;59348;52.158;5.588;2023-04-06T11:36:45;12.43;;;8.80;;
22250;SDS011;59348;52.158;5.588;2023-04-06T11:39:12;11.85;;;9.38;;
22250;SDS011;59348;52.158;5.588;2023-04-06T11:41:39;15.23;;;10.35;;
22250;SDS011;59348;52.158;5.588;2023-04-06T11:44:08;11.30;;;7.75;;
22250;SDS011;59348;52.158;5.588;2023-04-06T11:46:36;12.45;;;8.15;;
22250;SDS011;59348;52.158;5.588;2023-04-06T11:49:03;12.10;;;7.95;;
22250;SDS011;59348;52.158;5.588;2023-04-06T11:51:34;11.77;;;8.40;;
22250;SDS011;59348;52.158;5.588;2023-04-06T11:54:03;11.70;;;7.90;;
22250;SDS011;59348;52.158;5.588;2023-04-06T11:56:31;11.85;;;7.85;;
22250;SDS011;59348;52.158;5.588;2023-04-06T11:58:58;11.95;;;8.00;;
22250;SDS011;59348;52.158;5.588;2023-04-06T12:01:25;13.18;;;8.38;;
22250;SDS011;59348;52.158;5.588;2023-04-06T12:03:53;12.93;;;8.38;;
22250;SDS011;59348;52.158;5.588;2023-04-06T12:06:20;13.63;;;8.57;;
22250;SDS011;59348;52.158;5.588;2023-04-06T12:08:47;12.88;;;7.97;;
22250;SDS011;59348;52.158;5.588;2023-04-06T12:11:16;12.30;;;8.35;;
22250;SDS011;59348;52.158;5.588;2023-04-06T12:13:44;14.25;;;9.10;;
22250;SDS011;59348;52.158;5.588;2023-04-06T12:16:12;13.07;;;8.68;;
22250;SDS011;59348;52.158;5.588;2023-04-06T12:18:39;11.45;;;7.90;;
22250;SDS011;59348;52.158;5.588;2023-04-06T12:21:06;12.68;;;8.18;;
22250;SDS011;59348;52.158;5.588;2023-04-06T12:23:34;11.35;;;8.55;;
22250;SDS011;59348;52.158;5.588;2023-04-06T12:26:02;13.05;;;8.07;;
22250;SDS011;59348;52.158;5.588;2023-04-06T12:28:31;10.93;;;7.47;;
22250;SDS011;59348;52.158;5.588;2023-04-06T12:30:59;10.35;;;7.38;;
22250;SDS011;59348;52.158;5.588;2023-04-06T12:33:26;11.65;;;6.85;;
22250;SDS011;59348;52.158;5.588;2023-04-06T12:35:54;11.13;;;6.60;;
22250;SDS011;59348;52.158;5.588;2023-04-06T12:38:21;10.68;;;7.30;;
22250;SDS011;59348;52.158;5.588;2023-04-06T12:40:48;9.13;;;6.65;;
22250;SDS011;59348;52.158;5.588;2023-04-06T12:43:16;9.52;;;6.95;;
22250;SDS011;59348;52.158;5.588;2023-04-06T12:45:44;9.88;;;6.65;;
22250;SDS011;59348;52.158;5.588;2023-04-06T12:48:12;11.45;;;6.55;;
22250;SDS011;59348;52.158;5.588;2023-04-06T12:50:39;8.82;;;6.85;;
22250;SDS011;59348;52.158;5.588;2023-04-06T12:53:06;11.77;;;7.28;;
22250;SDS011;59348;52.158;5.588;2023-04-06T12:55:34;11.63;;;6.93;;
22250;SDS011;59348;52.158;5.588;2023-04-06T12:58:01;11.50;;;6.97;;
22250;SDS011;59348;52.158;5.588;2023-04-06T13:00:29;10.27;;;7.32;;
22250;SDS011;59348;52.158;5.588;2023-04-06T13:02:58;13.02;;;7.63;;
22250;SDS011;59348;52.158;5.588;2023-04-06T13:05:25;11.38;;;7.47;;
22250;SDS011;59348;52.158;5.588;2023-04-06T13:07:52;11.68;;;7.55;;
22250;SDS011;59348;52.158;5.588;2023-04-06T13:10:20;11.18;;;7.35;;
22250;SDS011;59348;52.158;5.588;2023-04-06T13:12:47;9.60;;;7.57;;
22250;SDS011;59348;52.158;5.588;2023-04-06T13:15:14;10.77;;;8.23;;
22250;SDS011;59348;52.158;5.588;2023-04-06T13:17:42;11.65;;;7.68;;
22250;SDS011;59348;52.158;5.588;2023-04-06T13:20:11;9.45;;;7.20;;
22250;SDS011;59348;52.158;5.588;2023-04-06T13:22:39;10.65;;;7.80;;
22250;SDS011;59348;52.158;5.588;2023-04-06T13:25:06;12.32;;;8.07;;
22250;SDS011;59348;52.158;5.588;2023-04-06T13:27:33;12.00;;;8.00;;
22250;SDS011;59348;52.158;5.588;2023-04-06T13:30:01;10.77;;;8.00;;
22250;SDS011;59348;52.158;5.588;2023-04-06T13:32:29;11.48;;;7.80;;
22250;SDS011;59348;52.158;5.588;2023-04-06T13:34:56;10.70;;;7.93;;
22250;SDS011;59348;52.158;5.588;2023-04-06T13:37:26;11.63;;;7.65;;
22250;SDS011;59348;52.158;5.588;2023-04-06T13:39:54;11.07;;;7.85;;
22250;SDS011;59348;52.158;5.588;2023-04-06T13:42:21;9.88;;;7.55;;
22250;SDS011;59348;52.158;5.588;2023-04-06T13:44:48;10.68;;;8.13;;
22250;SDS011;59348;52.158;5.588;2023-04-06T13:47:17;11.50;;;7.82;;
22250;SDS011;59348;52.158;5.588;2023-04-06T13:49:45;10.40;;;7.43;;
22250;SDS011;59348;52.158;5.588;2023-04-06T13:52:13;10.55;;;8.35;;
22250;SDS011;59348;52.158;5.588;2023-04-06T13:54:41;12.30;;;8.63;;
22250;SDS011;59348;52.158;5.588;2023-04-06T13:57:09;12.18;;;8.18;;
22250;SDS011;59348;52.158;5.588;2023-04-06T13:59:37;10.70;;;7.75;;
22250;SDS011;59348;52.158;5.588;2023-04-06T14:02:06;12.88;;;8.85;;
22250;SDS011;59348;52.158;5.588;2023-04-06T14:04:33;12.27;;;8.48;;
22250;SDS011;59348;52.158;5.588;2023-04-06T14:07:01;13.10;;;9.02;;
22250;SDS011;59348;52.158;5.588;2023-04-06T14:09:32;10.75;;;8.45;;
22250;SDS011;59348;52.158;5.588;2023-04-06T14:12:01;12.98;;;8.68;;
22250;SDS011;59348;52.158;5.588;2023-04-06T14:14:28;12.52;;;8.68;;
22250;SDS011;59348;52.158;5.588;2023-04-06T14:16:55;14.25;;;8.90;;
22250;SDS011;59348;52.158;5.588;2023-04-06T14:19:23;12.18;;;9.25;;
22250;SDS011;59348;52.158;5.588;2023-04-06T14:21:50;13.65;;;8.93;;
22250;SDS011;59348;52.158;5.588;2023-04-06T14:24:18;13.40;;;9.25;;
22250;SDS011;59348;52.158;5.588;2023-04-06T14:26:45;12.02;;;8.98;;
22250;SDS011;59348;52.158;5.588;2023-04-06T14:29:14;13.50;;;9.55;;
22250;SDS011;59348;52.158;5.588;2023-04-06T14:31:42;14.52;;;9.73;;
22250;SDS011;59348;52.158;5.588;2023-04-06T14:34:09;15.10;;;10.15;;